Terminal Aerodrome Forecast
Issued by NWS

Home | Current Version | Previous Version | Text Only | Print | Product List | Glossary On
Versions: 1 2 3 4 5 6 7 8 9 10 11 12 13 14
000
FTUS43 KDMX 200538
TAFMCW
TAF
KMCW 200538Z 2006/2106 15011KT P6SM SKC
     FM201200 16010KT P6SM BKN021
     FM201400 16011KT 4SM BR VCTS OVC011CB
      TEMPO 2015/2018 1SM -RA BR OVC005
     FM201800 18012G20KT 5SM BR VCSH SCT003 OVC013
     FM202200 22012G18KT P6SM SCT011 BKN090
     FM210200 29014KT P6SM BKN120=

USA.gov is the U.S. government's official web portal to all federal, state and local government web resources and services.